F/V War Raog III — FONQ — position and weather

sailwx.info

Track history (hours):
 
Tides and Currents Weather Stations Pressure Air Temp Water Temp Dewpoint Dewpoint Depression Visibility Wind Speed Wind Dir Waves Ship Positions

F/V War Raog III

Last reported at 2018-Feb-21 21:42 UTC. Time now 2018-Feb-22 07:19 UTC.
Position N 48°06' W 004°20'.

Length 16 m.

Type: Fishing. MMSI: 227144200.

Date/timePositionNaut miles runAvg speedWind from/ knotsBaromVisibWave heightAir tempDewpointWater temp
2018-Feb-21 21:42N 48°06' W 004°20'0 0.0
2018-Feb-21 21:30N 48°06' W 004°20'4 7.6
2018-Feb-21 21:00N 48°09' W 004°23'4 7.2
2018-Feb-21 20:30N 48°09' W 004°28'5 9.2
2018-Feb-21 20:00N 48°10' W 004°35'4 8.3
2018-Feb-21 19:30N 48°13' W 004°40'2 4.4
2018-Feb-21 19:00N 48°13' W 004°43'0 0.2
2018-Feb-21 18:30N 48°13' W 004°43'0 0.7
2018-Feb-21 18:00N 48°13' W 004°43'4 8.8
2018-Feb-21 17:30N 48°11' W 004°37'4 8.5
2018-Feb-21 17:00N 48°09' W 004°31'2 4.3
2018-Feb-21 16:30N 48°10' W 004°29'2 3.9
2018-Feb-21 16:00N 48°12' W 004°27'5 9.9
2018-Feb-21 15:28N 48°08' W 004°22'3 5.4
2018-Feb-21 15:00N 48°06' W 004°20'0 0.0
2018-Feb-21 08:57N 48°06' W 004°20'0 0.0
2018-Feb-21 08:30N 48°06' W 004°20'0 0.0
2018-Feb-20 20:07N 48°06' W 004°20'0 0.0
2018-Feb-20 20:00N 48°06' W 004°20'0 0.2
2018-Feb-20 19:28N 48°06' W 004°19'3 6.0
2018-Feb-20 19:00N 48°07' W 004°23'0 0.7
2018-Feb-20 18:30N 48°07' W 004°24'0 0.6
2018-Feb-20 17:59N 48°07' W 004°23'0 0.3
2018-Feb-20 17:30N 48°07' W 004°23'1 2.5
2018-Feb-20 17:00N 48°07' W 004°21'4 7.9
2018-Feb-20 16:30N 48°11' W 004°24'2 3.8
2018-Feb-20 16:01N 48°12' W 004°22'4 8.2
2018-Feb-20 15:30N 48°08' W 004°19'2 0.1
2018-Feb-19 22:12N 48°06' W 004°20'0 0.0
2018-Feb-19 22:00N 48°06' W 004°20'2 4.0
2018-Feb-19 21:28N 48°07' W 004°22'4 9.7
2018-Feb-19 21:00N 48°07' W 004°29'5 9.3
2018-Feb-19 20:30N 48°09' W 004°35'5 9.8
2018-Feb-19 20:01N 48°12' W 004°42'1 2.0
2018-Feb-19 19:30N 48°13' W 004°43'0 1.0
2018-Feb-19 19:01N 48°13' W 004°43'4 8.9
2018-Feb-19 18:31N 48°14' W 004°37'4 7.3
2018-Feb-19 18:01N 48°13' W 004°42'1 2.1
2018-Feb-19 17:31N 48°12' W 004°43'5 9.4
2018-Feb-19 17:00N 48°10' W 004°37'4 7.9
2018-Feb-19 16:31N 48°11' W 004°31'3 5.2
2018-Feb-19 16:00N 48°12' W 004°27'5 9.2
2018-Feb-19 15:30N 48°10' W 004°21'4 8.7
2018-Feb-19 15:00N 48°06' W 004°19'1 0.0
2018-Feb-18 20:04N 48°06' W 004°20'0 0.0
2018-Feb-18 20:00N 48°06' W 004°20'0 0.2
2018-Feb-18 19:30N 48°06' W 004°19'2 3.0
2018-Feb-18 18:59N 48°07' W 004°18'1 1.7
2018-Feb-18 18:29N 48°08' W 004°18'3 5.7
2018-Feb-18 18:01N 48°10' W 004°21'4 7.5
2018-Feb-18 17:30N 48°12' W 004°26'2 4.6
2018-Feb-18 17:00N 48°13' W 004°29'0 0.7
2018-Feb-18 16:30N 48°13' W 004°29'2 4.1
2018-Feb-18 16:00N 48°12' W 004°26'4 8.4
2018-Feb-18 15:30N 48°09' W 004°22'3 6.5
2018-Feb-18 15:00N 48°06' W 004°20'  
2018-Feb-15 21:09N 48°06' W 004°20'0 0.0
2018-Feb-15 21:00N 48°06' W 004°20'0 0.0
2018-Feb-15 20:30N 48°06' W 004°20'3 4.9
2018-Feb-15 19:59N 48°08' W 004°22'5 9.4
2018-Feb-15 19:30N 48°07' W 004°29'5 9.1
2018-Feb-15 19:00N 48°06' W 004°36'510.0
2018-Feb-15 18:30N 48°10' W 004°39'5 9.2
2018-Feb-15 18:01N 48°14' W 004°44'2 4.2
2018-Feb-15 17:30N 48°12' W 004°42'5 9.6
2018-Feb-15 17:00N 48°09' W 004°36'5 9.7
2018-Feb-15 16:30N 48°10' W 004°28'5 9.2
2018-Feb-15 16:00N 48°08' W 004°22'1 1.5
2018-Feb-15 15:30N 48°08' W 004°23'3 6.0
2018-Feb-15 14:59N 48°06' W 004°20'0 0.0
2018-Feb-14 19:40N 48°06' W 004°20'0 0.4
2018-Feb-14 19:27N 48°06' W 004°19'0 0.1
2018-Feb-14 19:00N 48°06' W 004°19'2 3.1
2018-Feb-14 18:30N 48°07' W 004°19'2 4.6
2018-Feb-14 18:00N 48°09' W 004°20'0 0.1
2018-Feb-14 17:30N 48°09' W 004°20'3 6.6
2018-Feb-14 17:00N 48°12' W 004°24'3 5.8
2018-Feb-14 16:30N 48°11' W 004°28'1 1.7
2018-Feb-14 16:00N 48°11' W 004°27'0 0.7
2018-Feb-14 15:30N 48°10' W 004°27'5 9.7
2018-Feb-14 14:58N 48°07' W 004°21'1 3.1
2018-Feb-14 14:30N 48°06' W 004°19'0 0.0
2018-Feb-14 13:58N 48°06' W 004°19'0 0.0
2018-Feb-14 13:27N 48°06' W 004°19'0 0.0
2018-Feb-14 00:02N 48°06' W 004°19'0 0.0
2018-Feb-14 00:00N 48°06' W 004°19'0 0.0
2018-Feb-13 23:30N 48°06' W 004°20'0 0.0
2018-Feb-13 23:00N 48°06' W 004°20'0 0.0
2018-Feb-13 22:30N 48°06' W 004°20'1 3.0
2018-Feb-13 22:01N 48°07' W 004°21'510.3
2018-Feb-13 21:30N 48°10' W 004°27'0 0.2
2018-Feb-13 21:00N 48°10' W 004°27'0 0.2
2018-Feb-13 20:30N 48°10' W 004°27'0 0.1
2018-Feb-13 20:00N 48°10' W 004°27'0 0.1
2018-Feb-13 19:30N 48°10' W 004°27'0 0.1
2018-Feb-13 19:00N 48°10' W 004°27'2 3.6
2018-Feb-13 18:30N 48°10' W 004°24'3 6.6
2018-Feb-13 18:00N 48°12' W 004°28'0 0.5
2018-Feb-13 17:30N 48°12' W 004°28'0 0.2
2018-Feb-13 17:01N 48°12' W 004°28'1 1.3
2018-Feb-13 16:30N 48°11' W 004°27'0 0.4
2018-Feb-13 16:00N 48°12' W 004°27'4 9.1
2018-Feb-13 15:30N 48°09' W 004°22'4 7.5
2018-Feb-13 15:00N 48°06' W 004°19'0 0.0
2018-Feb-12 20:11N 48°06' W 004°19'0 2.1
2018-Feb-12 20:00N 48°06' W 004°19'5 9.4
2018-Feb-12 19:30N 48°06' W 004°26'5 9.6
2018-Feb-12 19:00N 48°05' W 004°33'510.0
2018-Feb-12 18:30N 48°05' W 004°41'4 8.3
2018-Feb-12 18:00N 48°02' W 004°46'5 9.4
2018-Feb-12 17:29N 47°58' W 004°42'5 9.5
2018-Feb-12 17:00N 47°55' W 004°37'5 9.5
2018-Feb-12 16:28N 47°52' W 004°31'5 9.6
2018-Feb-12 15:59N 47°49' W 004°26'5 9.3
2018-Feb-12 15:28N 47°46' W 004°20'  
Track history (hours):
 
Tides and Currents Weather Stations Pressure Air Temp Water Temp Dewpoint Dewpoint Depression Visibility Wind Speed Wind Dir Waves Ship Positions

F/V War Raog III

Last reported at 2018-Feb-21 21:42 UTC. Time now 2018-Feb-22 07:19 UTC.
Position N 48°06' W 004°20'.

Length 16 m.

Type: Fishing. MMSI: 227144200.

Date/timePositionNaut miles runAvg speedWind from/ knotsBaromVisibWave heightAir tempDewpointWater temp
2018-Feb-21 21:42N 48°06' W 004°20'0 0.0
2018-Feb-21 21:30N 48°06' W 004°20'4 7.6
2018-Feb-21 21:00N 48°09' W 004°23'4 7.2
2018-Feb-21 20:30N 48°09' W 004°28'5 9.2
2018-Feb-21 20:00N 48°10' W 004°35'4 8.3
2018-Feb-21 19:30N 48°13' W 004°40'2 4.4
2018-Feb-21 19:00N 48°13' W 004°43'0 0.2
2018-Feb-21 18:30N 48°13' W 004°43'0 0.7
2018-Feb-21 18:00N 48°13' W 004°43'4 8.8
2018-Feb-21 17:30N 48°11' W 004°37'4 8.5
2018-Feb-21 17:00N 48°09' W 004°31'2 4.3
2018-Feb-21 16:30N 48°10' W 004°29'2 3.9
2018-Feb-21 16:00N 48°12' W 004°27'5 9.9
2018-Feb-21 15:28N 48°08' W 004°22'3 5.4
2018-Feb-21 15:00N 48°06' W 004°20'0 0.0
2018-Feb-21 08:57N 48°06' W 004°20'0 0.0
2018-Feb-21 08:30N 48°06' W 004°20'0 0.0
2018-Feb-20 20:07N 48°06' W 004°20'0 0.0
2018-Feb-20 20:00N 48°06' W 004°20'0 0.2
2018-Feb-20 19:28N 48°06' W 004°19'3 6.0
2018-Feb-20 19:00N 48°07' W 004°23'0 0.7
2018-Feb-20 18:30N 48°07' W 004°24'0 0.6
2018-Feb-20 17:59N 48°07' W 004°23'0 0.3
2018-Feb-20 17:30N 48°07' W 004°23'1 2.5
2018-Feb-20 17:00N 48°07' W 004°21'4 7.9
2018-Feb-20 16:30N 48°11' W 004°24'2 3.8
2018-Feb-20 16:01N 48°12' W 004°22'4 8.2
2018-Feb-20 15:30N 48°08' W 004°19'2 0.1
2018-Feb-19 22:12N 48°06' W 004°20'0 0.0
2018-Feb-19 22:00N 48°06' W 004°20'2 4.0
2018-Feb-19 21:28N 48°07' W 004°22'4 9.7
2018-Feb-19 21:00N 48°07' W 004°29'5 9.3
2018-Feb-19 20:30N 48°09' W 004°35'5 9.8
2018-Feb-19 20:01N 48°12' W 004°42'1 2.0
2018-Feb-19 19:30N 48°13' W 004°43'0 1.0
2018-Feb-19 19:01N 48°13' W 004°43'4 8.9
2018-Feb-19 18:31N 48°14' W 004°37'4 7.3
2018-Feb-19 18:01N 48°13' W 004°42'1 2.1
2018-Feb-19 17:31N 48°12' W 004°43'5 9.4
2018-Feb-19 17:00N 48°10' W 004°37'4 7.9
2018-Feb-19 16:31N 48°11' W 004°31'3 5.2
2018-Feb-19 16:00N 48°12' W 004°27'5 9.2
2018-Feb-19 15:30N 48°10' W 004°21'4 8.7
2018-Feb-19 15:00N 48°06' W 004°19'1 0.0
2018-Feb-18 20:04N 48°06' W 004°20'0 0.0
2018-Feb-18 20:00N 48°06' W 004°20'0 0.2
2018-Feb-18 19:30N 48°06' W 004°19'2 3.0
2018-Feb-18 18:59N 48°07' W 004°18'1 1.7
2018-Feb-18 18:29N 48°08' W 004°18'3 5.7
2018-Feb-18 18:01N 48°10' W 004°21'4 7.5
2018-Feb-18 17:30N 48°12' W 004°26'2 4.6
2018-Feb-18 17:00N 48°13' W 004°29'0 0.7
2018-Feb-18 16:30N 48°13' W 004°29'2 4.1
2018-Feb-18 16:00N 48°12' W 004°26'4 8.4
2018-Feb-18 15:30N 48°09' W 004°22'3 6.5
2018-Feb-18 15:00N 48°06' W 004°20'  
2018-Feb-15 21:09N 48°06' W 004°20'0 0.0
2018-Feb-15 21:00N 48°06' W 004°20'0 0.0
2018-Feb-15 20:30N 48°06' W 004°20'3 4.9
2018-Feb-15 19:59N 48°08' W 004°22'5 9.4
2018-Feb-15 19:30N 48°07' W 004°29'5 9.1
2018-Feb-15 19:00N 48°06' W 004°36'510.0
2018-Feb-15 18:30N 48°10' W 004°39'5 9.2
2018-Feb-15 18:01N 48°14' W 004°44'2 4.2
2018-Feb-15 17:30N 48°12' W 004°42'5 9.6
2018-Feb-15 17:00N 48°09' W 004°36'5 9.7
2018-Feb-15 16:30N 48°10' W 004°28'5 9.2
2018-Feb-15 16:00N 48°08' W 004°22'1 1.5
2018-Feb-15 15:30N 48°08' W 004°23'3 6.0
2018-Feb-15 14:59N 48°06' W 004°20'0 0.0
2018-Feb-14 19:40N 48°06' W 004°20'0 0.4
2018-Feb-14 19:27N 48°06' W 004°19'0 0.1
2018-Feb-14 19:00N 48°06' W 004°19'2 3.1
2018-Feb-14 18:30N 48°07' W 004°19'2 4.6
2018-Feb-14 18:00N 48°09' W 004°20'0 0.1
2018-Feb-14 17:30N 48°09' W 004°20'3 6.6
2018-Feb-14 17:00N 48°12' W 004°24'3 5.8
2018-Feb-14 16:30N 48°11' W 004°28'1 1.7
2018-Feb-14 16:00N 48°11' W 004°27'0 0.7
2018-Feb-14 15:30N 48°10' W 004°27'5 9.7
2018-Feb-14 14:58N 48°07' W 004°21'1 3.1
2018-Feb-14 14:30N 48°06' W 004°19'0 0.0
2018-Feb-14 13:58N 48°06' W 004°19'0 0.0
2018-Feb-14 13:27N 48°06' W 004°19'0 0.0
2018-Feb-14 00:02N 48°06' W 004°19'0 0.0
2018-Feb-14 00:00N 48°06' W 004°19'0 0.0
2018-Feb-13 23:30N 48°06' W 004°20'0 0.0
2018-Feb-13 23:00N 48°06' W 004°20'0 0.0
2018-Feb-13 22:30N 48°06' W 004°20'1 3.0
2018-Feb-13 22:01N 48°07' W 004°21'510.3
2018-Feb-13 21:30N 48°10' W 004°27'0 0.2
2018-Feb-13 21:00N 48°10' W 004°27'0 0.2
2018-Feb-13 20:30N 48°10' W 004°27'0 0.1
2018-Feb-13 20:00N 48°10' W 004°27'0 0.1
2018-Feb-13 19:30N 48°10' W 004°27'0 0.1
2018-Feb-13 19:00N 48°10' W 004°27'2 3.6
2018-Feb-13 18:30N 48°10' W 004°24'3 6.6
2018-Feb-13 18:00N 48°12' W 004°28'0 0.5
2018-Feb-13 17:30N 48°12' W 004°28'0 0.2
2018-Feb-13 17:01N 48°12' W 004°28'1 1.3
2018-Feb-13 16:30N 48°11' W 004°27'0 0.4
2018-Feb-13 16:00N 48°12' W 004°27'4 9.1
2018-Feb-13 15:30N 48°09' W 004°22'4 7.5
2018-Feb-13 15:00N 48°06' W 004°19'0 0.0
2018-Feb-12 20:11N 48°06' W 004°19'0 2.1
2018-Feb-12 20:00N 48°06' W 004°19'5 9.4
2018-Feb-12 19:30N 48°06' W 004°26'5 9.6
2018-Feb-12 19:00N 48°05' W 004°33'510.0
2018-Feb-12 18:30N 48°05' W 004°41'4 8.3
2018-Feb-12 18:00N 48°02' W 004°46'5 9.4
2018-Feb-12 17:29N 47°58' W 004°42'5 9.5
2018-Feb-12 17:00N 47°55' W 004°37'5 9.5
2018-Feb-12 16:28N 47°52' W 004°31'5 9.6
2018-Feb-12 15:59N 47°49' W 004°26'5 9.3
2018-Feb-12 15:28N 47°46' W 004°20'  

Dump ship's entire track history